Latest Coastal Weather Observations for Low Rocky Point

IDT60701

Issued at 4:52 am EST Monday 29 August 2016 (issued every 10 minutes, with the page automatically refreshed every 10 minutes)

About coastal observations | Map of coastal stations | Coastal observations for TAS | Marine services | Other Formats
Station Details ID: 097080 Name: LOW ROCKY POINT Lat: -42.98 Lon: 145.50 Height: 34.0 m
Data from the previous 72 hours. | See also: Recent months at Low Rocky Point
Date/Time
EST
Temp
°C
Wind Pressure Rain since
9am
mm
Weather Cloud Vis
km
Sea
Height
m
Swell
Dir  Spd
kts
Gust
kts
hPa Trend Height
m
Period
s
Dir
29/04:30am 8.8 W 6 9 1022.4 - 0.0 - - - - - - -
29/04:00am 8.9 WNW 8 13 1022.4 - 0.0 - - - - - - -
29/03:30am 8.8 WNW 7 10 1022.3 - 0.0 - - - - - - -
29/03:00am 8.7 NW 8 13 1022.4 - 0.0 - - - - - - -
29/02:30am 8.8 W 11 14 1022.4 - 0.0 - - - - - - -
29/02:00am 8.8 WNW 10 13 1022.4 - 0.0 - - - - - - -
29/01:30am 8.9 WNW 12 16 1022.3 - 0.0 - - - - - - -
29/01:00am 8.8 WNW 10 14 1022.2 - 0.0 - - - - - - -
29/12:30am 8.9 WNW 10 14 1021.8 - 0.0 - - - - - - -
29/12:00am 8.7 WNW 13 17 1021.7 - 0.0 - - - - - - -
 
Date/Time
EST
Temp
°C
Wind Pressure Rain since
9am
mm
Weather Cloud Vis
km
Sea
Height
m
Swell
Dir  Spd
kts
Gust
kts
hPa Trend Height
m
Period
s
Dir
28/11:30pm 8.8 WNW 12 16 1021.5 - 0.0 - - - - - - -
28/11:00pm 8.7 WNW 8 11 1021.5 - 0.0 - - - - - - -
28/10:30pm 8.8 WNW 10 13 1021.4 - 0.0 - - - - - - -
28/10:00pm 8.8 WNW 9 11 1021.4 - 0.0 - - - - - - -
28/09:30pm 8.8 W 11 14 1021.3 - 0.0 - - - - - - -
28/09:00pm 8.7 NW 10 14 1021.2 - 0.0 - - - - - - -
28/08:30pm 8.8 WNW 10 16 1020.7 - 0.0 - - - - - - -
28/08:00pm 8.7 WNW 11 18 1020.5 - 0.0 - - - - - - -
28/07:30pm 8.8 WNW 14 18 1020.1 - 0.0 - - - - - - -
28/07:00pm 8.7 WNW 15 17 1020.1 - 0.0 - - - - - - -
28/06:30pm 8.8 WNW 15 20 1019.7 - 0.0 - - - - - - -
28/06:00pm 8.8 WNW 16 19 1019.6 - 0.0 - - - - - - -
28/05:30pm 8.8 WNW 15 19 1019.0 - 0.0 - - - - - - -
28/05:00pm 9.0 WNW 15 18 1018.8 - 0.0 - - - - - - -
28/04:30pm 9.1 WNW 14 18 1018.5 - 0.0 - - - - - - -
28/04:00pm 10.1 WNW 13 17 1018.5 - 0.0 - - - - - - -
28/03:30pm 10.2 W 14 17 1018.3 - 0.0 - - - - - - -
28/03:00pm 10.0 WNW 16 19 1018.3 - 0.0 - - - - - - -
28/02:30pm 10.3 WNW 14 17 1018.1 - 0.0 - - - - - - -
28/02:00pm 10.1 W 14 17 1018.0 - 0.0 - - - - - - -
28/01:30pm 10.4 WNW 13 16 1018.0 - 0.0 - - - - - - -
28/01:00pm 11.0 WNW 12 15 1018.3 - 0.0 - - - - - - -
28/12:30pm 10.5 WNW 13 16 1018.2 - 0.0 - - - - - - -
28/12:00pm 8.9 W 8 11 1018.5 - 0.0 - - - - - - -
28/11:30am 9.1 WSW 11 14 1018.1 - 0.0 - - - - - - -
28/11:00am 8.8 WSW 7 9 1018.1 - 0.0 - - - - - - -
28/10:30am 9.0 WSW 11 16 1017.8 - 0.0 - - - - - - -
28/10:00am 9.8 WSW 11 16 1017.5 - 0.0 - - - - - - -
28/09:30am 8.4 WSW 9 15 1017.4 - 0.0 - - - - - - -
28/09:00am 7.4 SW 8 14 1017.2 - 6.4 - - - - - - -
28/08:30am 8.8 WSW 10 14 1016.8 - 6.4 - - - - - - -
28/08:00am 7.5 SW 12 19 1016.7 - 6.4 - - - - - - -
28/07:30am 7.5 SW 12 19 1016.0 - 6.4 - - - - - - -
28/07:00am 7.3 SW 12 19 1015.7 - 6.4 - - - - - - -
28/06:30am 7.1 WSW 14 18 1015.3 - 6.4 - - - - - - -
28/06:00am 7.3 SW 12 19 1014.7 - 6.4 - - - - - - -
28/05:30am 6.7 SW 11 17 1014.2 - 6.4 - - - - - - -
28/05:00am 6.3 SW 15 22 1013.9 - 6.4 Recent precip. - - - - - -
28/04:30am 7.0 SW 14 20 1013.3 - 6.4 - - - - - - -
28/04:00am 6.4 SW 8 16 1012.8 - 6.2 - - - - - - -
28/03:30am 4.6 S 5 7 1012.6 - 6.2 - - - - - - -
28/03:00am 5.3 SW 18 26 1012.8 - 6.2 - - - - - - -
28/02:31am 6.6 SW 15 28 1012.3 - 6.2 - - - - - - -
28/02:30am 6.8 SW 14 28 1012.4 - 6.2 - - - - - - -
28/02:00am 6.7 SSW 14 20 1011.9 - 6.2 - - - - - - -
28/01:30am 7.0 SSW 15 22 1011.6 - 6.2 - - - - - - -
28/01:00am 6.5 S 17 23 1011.0 - 6.2 - - - - - - -
28/12:34am 7.1 SSW 17 27 1010.3 - 6.2 - - - - - - -
28/12:30am 6.9 SSW 17 24 1010.2 - 6.2 - - - - - - -
28/12:00am 6.8 SSW 19 25 1009.6 - 6.2 Recent precip. - - - - - -
 
Date/Time
EST
Temp
°C
Wind Pressure Rain since
9am
mm
Weather Cloud Vis
km
Sea
Height
m
Swell
Dir  Spd
kts
Gust
kts
hPa Trend Height
m
Period
s
Dir
27/11:30pm 7.2 SSW 20 30 1008.6 - 6.0 - - - - - - -
27/11:23pm 7.0 SSW 20 30 1008.5 - 6.0 - - - - - - -
27/11:00pm 7.3 SSW 18 27 1007.8 - 6.0 Recent precip. - - - - - -
27/10:56pm 7.5 SSW 18 28 1007.6 - 6.0 - - - - - - -
27/10:40pm 7.8 WSW 21 29 1007.0 - 6.0 - - - - - - -
27/10:30pm 8.1 WSW 22 29 1006.6 - 6.0 - - - - - - -
27/10:00pm 9.4 W 21 25 1005.9 - 5.4 Rain - - - - - -
27/09:30pm 9.6 W 26 33 1005.4 - 4.6 - - - - - - -
27/09:25pm 9.4 WNW 31 48 1005.4 - 4.6 - - - - - - -
27/09:19pm 9.5 WNW 37 53 1005.3 - 4.6 - - - - - - -
27/09:00pm 10.5 NW 36 46 1004.6 - 4.0 Rain - - - - - -
27/08:30pm 11.0 NW 38 49 1004.7 - 2.6 - - - - - - -
27/08:05pm 11.1 NW 36 46 1004.5 - 1.8 - - - - - - -
27/08:00pm 11.2 NW 38 47 1004.6 - 1.2 Rain - - - - - -
27/07:31pm 11.5 NW 36 49 1004.9 - 1.0 - - - - - - -
27/07:30pm 11.5 NW 36 45 1004.8 - 1.0 - - - - - - -
27/07:03pm 11.2 NW 37 47 1005.2 - 1.0 - - - - - - -
27/07:00pm 11.2 NW 37 45 1005.3 - 0.8 Recent precip. - - - - - -
27/06:40pm 11.5 NW 37 47 1005.5 - 0.6 - - - - - - -
27/06:34pm 11.6 NNW 31 42 1005.7 - 0.6 - - - - - - -
27/06:30pm 11.6 NNW 29 38 1005.7 - 0.6 - - - - - - -
27/06:17pm 11.7 NNW 31 41 1005.9 - 0.6 - - - - - - -
27/06:00pm 11.7 NW 32 41 1006.2 - 0.6 - - - - - - -
27/05:35pm 11.4 NW 33 43 1006.5 - 0.6 - - - - - - -
27/05:30pm 11.5 NW 36 43 1006.6 - 0.6 - - - - - - -
27/05:00pm 11.8 NW 34 43 1007.0 - 0.6 - - - - - - -
27/04:30pm 11.8 NW 32 42 1007.1 - 0.6 - - - - - - -
27/04:02pm 11.7 NW 30 40 1007.1 - 0.6 - - - - - - -
27/04:00pm 11.6 NW 31 40 1007.2 - 0.6 - - - - - - -
27/03:34pm 11.5 NW 31 42 1007.5 - 0.6 - - - - - - -
27/03:30pm 11.6 NW 30 39 1007.7 - 0.6 - - - - - - -
27/03:25pm 11.5 NW 29 39 1007.7 - 0.6 - - - - - - -
27/03:00pm 11.2 NW 33 41 1007.9 - 0.6 Recent precip. - - - - - -
27/02:30pm 10.1 NW 34 44 1007.9 - 0.6 - - - - - - -
27/02:03pm 11.1 NW 29 39 1008.0 - 0.4 - - - - - - -
27/02:00pm 11.0 NW 30 39 1008.1 - 0.4 - - - - - - -
27/01:37pm 11.9 NW 31 41 1008.4 - 0.4 - - - - - - -
27/01:30pm 12.0 NW 33 40 1008.4 - 0.4 - - - - - - -
27/01:00pm 11.6 NW 29 39 1008.9 - 0.4 - - - - - - -
27/12:41pm 10.9 NW 33 45 1008.8 - 0.4 - - - - - - -
27/12:30pm 11.9 NW 31 39 1009.2 - 0.4 - - - - - - -
27/12:00pm 11.9 NW 30 39 1009.5 - 0.4 - - - - - - -
27/11:41am 11.5 NW 31 42 1009.7 - 0.4 - - - - - - -
27/11:30am 11.3 NW 32 39 1010.0 - 0.4 - - - - - - -
27/11:16am 11.2 NW 31 41 1010.1 - 0.4 - - - - - - -
27/11:00am 11.5 NW 32 40 1010.1 - 0.4 Recent precip. - - - - - -
27/10:30am 11.2 NW 31 41 1010.4 - 0.4 - - - - - - -
27/10:00am 10.9 NW 30 41 1010.8 - 0.0 - - - - - - -
27/09:30am 9.9 NW 32 44 1011.2 - 0.0 - - - - - - -
27/09:23am 11.0 NW 27 38 1011.2 - 0.0 - - - - - - -
27/09:00am 10.9 NW 30 37 1011.3 - 4.2 - - - - - - -
27/08:30am 10.6 NW 30 39 1011.4 - 4.2 - - - - - - -
27/08:00am 9.8 NW 32 43 1011.5 - 4.2 Rain - - - - - -
27/07:40am 10.6 NW 28 38 1011.5 - 4.0 - - - - - - -
27/07:30am 10.3 NW 29 36 1011.3 - 4.0 - - - - - - -
27/07:00am 9.6 NW 29 36 1011.6 - 3.8 Recent precip. - - - - - -
27/06:42am 10.1 NW 25 36 1011.4 - 3.6 - - - - - - -
27/06:30am 10.1 NW 25 33 1011.6 - 3.6 - - - - - - -
27/06:15am 10.5 NW 27 39 1011.6 - 3.6 - - - - - - -
27/06:00am 10.7 NW 28 34 1011.7 - 3.6 - - - - - - -
27/05:30am 10.7 NW 28 36 1011.8 - 3.6 - - - - - - -
27/05:00am 10.6 NW 27 36 1011.9 - 3.6 - - - - - - -
27/04:30am 10.5 NW 28 35 1011.7 - 3.6 - - - - - - -
27/04:17am 10.5 NW 25 36 1011.6 - 3.6 - - - - - - -
27/04:00am 10.3 NW 28 34 1011.7 - 3.6 - - - - - - -
27/03:30am 9.9 NW 26 31 1011.9 - 3.6 - - - - - - -
27/03:00am 10.0 NW 23 29 1012.0 - 3.6 Recent precip. - - - - - -
27/02:30am 9.7 NW 21 25 1012.3 - 3.6 - - - - - - -
27/02:00am 9.7 WNW 25 30 1013.0 - 3.4 Recent precip. - - - - - -
27/01:49am 9.8 NW 22 32 1013.2 - 3.2 - - - - - - -
27/01:30am 9.8 NW 22 31 1013.5 - 3.2 - - - - - - -
27/01:08am 10.2 NW 22 32 1013.4 - 2.8 - - - - - - -
27/01:00am 10.2 NW 22 26 1013.3 - 2.8 Recent precip. - - - - - -
27/12:30am 10.0 NW 21 27 1013.4 - 2.6 - - - - - - -
27/12:00am 9.6 NW 22 32 1013.2 - 2.4 Rain - - - - - -
 
Date/Time
EST
Temp
°C
Wind Pressure Rain since
9am
mm
Weather Cloud Vis
km
Sea
Height
m
Swell
Dir  Spd
kts
Gust
kts
hPa Trend Height
m
Period
s
Dir
26/11:30pm 9.6 NW 23 29 1013.4 - 2.2 - - - - - - -
26/11:00pm 10.2 NW 22 27 1013.5 - 2.0 Rain - - - - - -
26/10:30pm 10.0 NW 21 27 1013.8 - 1.8 - - - - - - -
26/10:00pm 10.4 NW 21 25 1013.9 - 1.8 - - - - - - -
26/09:30pm 10.3 NW 22 28 1014.3 - 1.8 - - - - - - -
26/09:00pm 9.9 NW 24 31 1014.3 - 1.8 Recent precip. - - - - - -
26/08:30pm 9.9 WNW 21 26 1014.2 - 1.8 - - - - - - -
26/08:26pm 9.7 WNW 23 33 1014.3 - 1.8 - - - - - - -
26/08:00pm 10.4 WNW 24 28 1014.1 - 1.6 - - - - - - -
26/07:30pm 10.6 NW 22 27 1013.9 - 1.6 - - - - - - -
26/07:00pm 9.9 NW 23 29 1013.7 - 1.6 - - - - - - -
26/06:30pm 10.7 NW 22 28 1013.5 - 1.6 - - - - - - -
26/06:00pm 10.6 NW 22 29 1013.5 - 1.6 - - - - - - -
26/05:30pm 10.6 NW 23 30 1013.2 - 1.6 - - - - - - -
26/05:00pm 10.8 NW 23 29 1013.1 - 1.6 - - - - - - -
26/04:30pm 10.7 NW 23 27 1012.8 - 1.6 - - - - - - -
26/04:00pm 10.8 NW 22 28 1012.9 - 1.6 - - - - - - -
26/03:30pm 10.6 NW 23 29 1012.8 - 1.6 - - - - - - -
26/03:00pm 11.1 NW 24 28 1012.8 - 1.6 - - - - - - -
26/02:30pm 11.0 NW 24 29 1012.8 - 1.6 - - - - - - -
26/02:00pm 10.7 NW 24 29 1013.2 - 1.6 - - - - - - -
26/01:30pm 10.6 NW 23 29 1013.2 - 1.6 - - - - - - -
26/01:00pm 10.5 NW 24 29 1013.4 - 1.6 - - - - - - -
26/12:30pm 10.2 NW 25 29 1013.7 - 1.6 - - - - - - -
26/12:00pm 9.6 NW 23 29 1014.1 - 1.6 Recent precip. - - - - - -
26/11:30am 9.6 WNW 24 31 1014.4 - 1.4 - - - - - - -
26/11:00am 9.9 NW 24 30 1014.3 - 0.2 - - - - - - -
26/10:30am 9.2 NW 23 33 1014.4 - 0.2 - - - - - - -
26/10:24am 10.1 NW 19 31 1014.4 - 0.2 - - - - - - -
26/10:00am 10.3 WNW 24 28 1014.4 - 0.2 Recent precip. - - - - - -
26/09:30am 10.2 NW 21 26 1014.5 - 0.2 - - - - - - -
26/09:00am 9.8 WNW 22 27 1014.4 - 5.2 - - - - - - -
26/08:30am 9.6 WNW 19 24 1014.4 - 5.2 - - - - - - -
26/08:00am 9.3 WNW 19 24 1014.3 - 5.2 Recent precip. - - - - - -
26/07:30am 9.1 NW 16 21 1014.2 - 5.2 - - - - - - -
26/07:00am 8.9 WNW 22 26 1014.1 - 4.8 Rain - - - - - -
26/06:30am 8.6 WNW 21 28 1013.9 - 4.6 - - - - - - -
26/06:00am 8.7 WNW 20 29 1013.7 - 4.2 Rain - - - - - -
26/05:30am 9.3 NW 19 27 1013.7 - 4.0 - - - - - - -
26/05:00am 9.1 NW 19 23 1013.8 - 4.0 - - - - - - -

Other Formats:

Comma delimited format used in spreadsheet applications
http://www.bom.gov.au/fwo/IDT60701/IDT60701.95961.axf

JavaScript Object Notation format (JSON) in row-major order
http://www.bom.gov.au/fwo/IDT60701/IDT60701.95961.json